createdAt,value
2023-02-20T00:00:28.219Z,5.59
2023-02-20T00:02:54.521Z,5.55
2023-02-20T00:05:20.826Z,5.54
2023-02-20T00:07:47.090Z,5.44
2023-02-20T00:10:13.434Z,5.27
2023-02-20T00:12:39.713Z,5.34
2023-02-20T00:15:06.012Z,5.10
2023-02-20T00:17:32.261Z,5.05
2023-02-20T00:19:58.520Z,5.17
2023-02-20T00:22:24.760Z,5.27
2023-02-20T00:24:51.010Z,5.32
2023-02-20T00:27:17.441Z,5.39
2023-02-20T00:29:43.701Z,5.41
2023-02-20T00:32:10.040Z,5.42
2023-02-20T00:34:36.396Z,5.41
2023-02-20T00:37:02.665Z,5.41
2023-02-20T00:39:28.918Z,5.33
2023-02-20T00:41:55.234Z,5.33
2023-02-20T00:44:21.479Z,5.35
2023-02-20T00:46:47.745Z,5.41
2023-02-20T00:49:14.047Z,5.32
2023-02-20T00:51:40.275Z,5.34
2023-02-20T00:54:06.521Z,5.01
2023-02-20T00:56:32.772Z,4.74
2023-02-20T00:58:59.037Z,4.45
2023-02-20T01:01:25.337Z,3.91
2023-02-20T01:03:51.624Z,4.23
2023-02-20T01:06:17.912Z,4.32
2023-02-20T01:08:44.178Z,4.39
2023-02-20T01:11:10.482Z,4.52
2023-02-20T01:13:36.733Z,4.55
2023-02-20T01:16:03.059Z,4.66
2023-02-20T01:18:29.333Z,4.75
2023-02-20T01:20:55.571Z,4.87
2023-02-20T01:23:21.835Z,4.90
2023-02-20T01:25:48.079Z,4.93
2023-02-20T01:28:14.326Z,4.98
2023-02-20T01:30:40.646Z,4.84
2023-02-20T01:33:06.966Z,4.89
2023-02-20T01:35:33.245Z,4.88
2023-02-20T01:37:59.537Z,4.83
2023-02-20T01:40:25.776Z,4.87
2023-02-20T01:42:52.002Z,4.86
2023-02-20T01:45:18.280Z,4.78
2023-02-20T01:47:44.584Z,4.76
2023-02-20T01:50:10.840Z,4.72
2023-02-20T01:52:37.117Z,4.69
2023-02-20T01:55:03.424Z,4.56
2023-02-20T01:57:31.870Z,4.45
2023-02-20T01:59:58.156Z,4.12
2023-02-20T02:02:24.573Z,4.24
2023-02-20T02:04:50.883Z,4.36
2023-02-20T02:07:17.178Z,4.47
2023-02-20T02:09:43.467Z,4.53
2023-02-20T02:12:09.756Z,4.50
2023-02-20T02:14:36.090Z,4.56
2023-02-20T02:17:02.555Z,4.55
2023-02-20T02:19:28.860Z,4.58
2023-02-20T02:21:55.120Z,4.52
2023-02-20T02:24:21.374Z,4.51
2023-02-20T02:26:47.638Z,4.51
2023-02-20T02:29:13.898Z,4.57
2023-02-20T02:31:40.251Z,4.59
2023-02-20T02:34:06.616Z,4.57
2023-02-20T02:36:32.865Z,4.53
2023-02-20T02:38:59.125Z,4.54
2023-02-20T02:41:25.432Z,4.55
2023-02-20T02:43:51.689Z,4.52
2023-02-20T02:46:17.947Z,4.52
2023-02-20T02:48:44.213Z,4.51
2023-02-20T02:51:10.461Z,4.50
2023-02-20T02:53:36.695Z,4.54
2023-02-20T02:56:02.920Z,4.48
2023-02-20T02:58:29.186Z,4.47
2023-02-20T03:00:55.470Z,4.40
2023-02-20T03:03:21.730Z,4.49
2023-02-20T03:05:48.081Z,4.50
2023-02-20T03:08:14.425Z,4.21
2023-02-20T03:10:40.678Z,4.03
2023-02-20T03:13:06.926Z,4.22
2023-02-20T03:15:33.322Z,4.18
2023-02-20T03:17:59.561Z,4.20
2023-02-20T03:20:25.881Z,4.08
2023-02-20T03:22:52.129Z,3.95
2023-02-20T03:25:18.391Z,4.07
2023-02-20T03:27:44.662Z,4.11
2023-02-20T03:30:10.994Z,3.96
2023-02-20T03:32:37.260Z,4.00
2023-02-20T03:35:03.548Z,4.14
2023-02-20T03:37:29.835Z,4.17
2023-02-20T03:39:56.071Z,4.09
2023-02-20T03:42:22.327Z,4.12
2023-02-20T03:44:48.578Z,4.02
2023-02-20T03:47:14.798Z,4.09
2023-02-20T03:49:41.088Z,4.09
2023-02-20T03:52:07.358Z,4.13
2023-02-20T03:54:33.609Z,4.16
2023-02-20T03:56:59.849Z,4.18
2023-02-20T03:59:26.165Z,4.20
2023-02-20T04:01:52.462Z,4.14
2023-02-20T04:04:18.740Z,4.13
2023-02-20T04:06:45.002Z,4.09
2023-02-20T04:09:11.274Z,4.07
2023-02-20T04:11:37.517Z,4.03
2023-02-20T04:14:03.784Z,3.95
2023-02-20T04:16:30.126Z,3.92
2023-02-20T04:18:56.421Z,3.87
2023-02-20T04:21:22.747Z,3.84
2023-02-20T04:23:49.090Z,3.89
2023-02-20T04:26:15.505Z,3.92
2023-02-20T04:28:41.880Z,3.95
2023-02-20T04:31:08.174Z,3.93
2023-02-20T04:33:34.504Z,3.93
2023-02-20T04:36:00.745Z,3.93
2023-02-20T04:38:26.993Z,3.94
2023-02-20T04:40:53.240Z,3.92
2023-02-20T04:43:19.574Z,3.93
2023-02-20T04:45:45.928Z,3.92
2023-02-20T04:48:12.218Z,3.90
2023-02-20T04:50:38.503Z,3.93
2023-02-20T04:53:04.819Z,3.90
2023-02-20T04:55:31.105Z,3.41
2023-02-20T04:57:57.372Z,3.48
2023-02-20T05:00:23.663Z,3.60
2023-02-20T05:02:49.929Z,3.64
2023-02-20T05:05:16.534Z,3.73
2023-02-20T05:07:42.799Z,3.80
2023-02-20T05:10:09.067Z,3.88
2023-02-20T05:12:35.338Z,3.99
2023-02-20T05:15:01.636Z,4.00
2023-02-20T05:17:27.924Z,3.94
2023-02-20T05:19:54.199Z,3.94
2023-02-20T05:22:20.490Z,3.98
2023-02-20T05:24:46.769Z,4.02
2023-02-20T05:27:13.004Z,4.04
2023-02-20T05:29:39.334Z,4.07
2023-02-20T05:32:05.677Z,4.08
2023-02-20T05:34:31.928Z,4.08
2023-02-20T05:36:58.210Z,4.02
2023-02-20T05:39:24.525Z,4.05
2023-02-20T05:41:50.831Z,4.06
2023-02-20T05:44:17.421Z,4.10
2023-02-20T05:46:43.746Z,4.09
2023-02-20T05:49:10.121Z,4.09
2023-02-20T05:51:36.420Z,4.13
2023-02-20T05:54:02.664Z,4.08
2023-02-20T05:56:29.145Z,3.91
2023-02-20T05:58:55.587Z,3.90
2023-02-20T06:01:21.839Z,3.93
2023-02-20T06:03:48.137Z,3.99
2023-02-20T06:06:14.575Z,4.03
2023-02-20T06:08:40.934Z,4.00
2023-02-20T06:11:07.268Z,3.94
2023-02-20T06:13:33.621Z,3.89
2023-02-20T06:15:59.916Z,3.93
2023-02-20T06:18:26.248Z,3.73
2023-02-20T06:20:52.561Z,3.78
2023-02-20T06:23:18.826Z,3.83
2023-02-20T06:25:45.118Z,3.89
2023-02-20T06:28:11.506Z,3.95
2023-02-20T06:30:37.799Z,3.98
2023-02-20T06:33:04.109Z,4.06
2023-02-20T06:35:30.394Z,4.05
2023-02-20T06:37:56.645Z,4.12
2023-02-20T06:40:23.015Z,4.11
2023-02-20T06:42:49.372Z,4.15
2023-02-20T06:45:15.742Z,4.26
2023-02-20T06:47:42.141Z,4.30
2023-02-20T06:50:08.417Z,4.34
2023-02-20T06:52:34.665Z,4.40
2023-02-20T06:55:00.978Z,4.47
2023-02-20T06:57:27.218Z,4.56
2023-02-20T06:59:53.489Z,4.62
2023-02-20T07:02:19.776Z,4.70
2023-02-20T07:04:46.044Z,4.61
2023-02-20T07:07:12.272Z,4.64
2023-02-20T07:09:38.653Z,4.56
2023-02-20T07:12:04.923Z,4.70
2023-02-20T07:14:31.218Z,4.83
2023-02-20T07:16:57.469Z,4.92
2023-02-20T07:19:23.733Z,4.99
2023-02-20T07:21:50.072Z,4.99
2023-02-20T07:24:16.306Z,5.11
2023-02-20T07:26:42.578Z,5.20
2023-02-20T07:29:08.880Z,5.21
2023-02-20T07:31:35.205Z,5.36
2023-02-20T07:34:01.572Z,5.42
2023-02-20T07:36:27.811Z,5.26
2023-02-20T07:38:54.069Z,5.36
2023-02-20T07:41:20.357Z,5.45
2023-02-20T07:43:46.629Z,5.53
2023-02-20T07:46:13.285Z,5.48
2023-02-20T07:48:39.715Z,5.48
2023-02-20T07:51:05.994Z,5.57
2023-02-20T07:53:32.636Z,5.57
2023-02-20T07:55:58.892Z,5.51
2023-02-20T07:58:25.198Z,5.54
2023-02-20T08:00:51.505Z,5.56
2023-02-20T08:03:17.774Z,5.74
2023-02-20T08:05:49.514Z,5.92
2023-02-20T08:08:16.258Z,6.03
2023-02-20T08:10:42.533Z,6.17
2023-02-20T08:13:08.821Z,6.28
2023-02-20T08:15:35.068Z,6.41
2023-02-20T08:18:01.375Z,6.52
2023-02-20T08:20:27.810Z,6.58
2023-02-20T08:22:54.135Z,6.55
2023-02-20T08:25:20.410Z,6.81
2023-02-20T08:27:46.717Z,6.90
2023-02-20T08:30:13.046Z,7.11
2023-02-20T08:32:39.459Z,7.09
2023-02-20T08:35:05.763Z,7.05
2023-02-20T08:37:32.007Z,7.12
2023-02-20T08:39:58.301Z,7.15
2023-02-20T08:42:24.554Z,6.72
2023-02-20T08:44:50.837Z,6.72
2023-02-20T08:47:17.084Z,6.79
2023-02-20T08:49:43.332Z,6.72
2023-02-20T08:52:09.580Z,6.89
2023-02-20T08:54:35.833Z,7.08
2023-02-20T08:57:02.143Z,7.24
2023-02-20T08:59:28.468Z,7.26
2023-02-20T09:01:54.705Z,7.33
2023-02-20T09:04:21.010Z,7.49
2023-02-20T09:06:47.336Z,7.62
2023-02-20T09:09:13.647Z,7.72
2023-02-20T09:11:40.168Z,7.83
2023-02-20T09:14:06.661Z,7.84
2023-02-20T09:16:32.996Z,8.00
2023-02-20T09:18:59.321Z,8.08
2023-02-20T09:21:25.629Z,7.96
2023-02-20T09:23:51.885Z,7.75
2023-02-20T09:26:18.284Z,7.73
2023-02-20T09:28:44.607Z,7.73
2023-02-20T09:31:10.848Z,7.83
2023-02-20T09:33:37.100Z,7.89
2023-02-20T09:36:03.352Z,7.85
2023-02-20T09:38:29.582Z,8.11
2023-02-20T09:40:55.872Z,8.20
2023-02-20T09:43:22.179Z,8.11
2023-02-20T09:45:48.481Z,7.95
2023-02-20T09:48:14.774Z,8.03
2023-02-20T09:50:41.069Z,7.88
2023-02-20T09:53:07.350Z,7.95
2023-02-20T09:55:33.618Z,8.08
2023-02-20T09:57:59.894Z,8.27
2023-02-20T10:00:26.204Z,8.53
2023-02-20T10:02:52.614Z,8.73
2023-02-20T10:05:18.948Z,8.79
2023-02-20T10:07:45.198Z,8.84
2023-02-20T10:10:11.523Z,8.89
2023-02-20T10:12:37.977Z,8.91
2023-02-20T10:15:04.245Z,9.00
2023-02-20T10:17:30.552Z,9.07
2023-02-20T10:19:56.846Z,8.92
2023-02-20T10:22:23.370Z,9.02
2023-02-20T10:24:49.697Z,8.81
2023-02-20T10:27:16.093Z,9.09
2023-02-20T10:29:42.335Z,9.11
2023-02-20T10:32:08.687Z,9.12
2023-02-20T10:34:35.171Z,9.14
2023-02-20T10:37:01.411Z,9.16
2023-02-20T10:39:27.704Z,8.94
2023-02-20T10:41:54.010Z,9.12
2023-02-20T10:44:20.282Z,9.14
2023-02-20T10:46:49.340Z,9.25
2023-02-20T10:49:16.025Z,9.57
2023-02-20T10:51:42.263Z,9.45
2023-02-20T10:54:08.522Z,9.68
2023-02-20T10:56:34.782Z,9.87
2023-02-20T10:59:01.283Z,9.75
2023-02-20T11:01:27.655Z,9.81
2023-02-20T11:03:54.038Z,9.99
2023-02-20T11:06:20.346Z,10.21
2023-02-20T11:08:46.594Z,10.20
2023-02-20T11:11:13.142Z,10.15
2023-02-20T11:13:39.636Z,10.14
2023-02-20T11:16:05.930Z,10.36
2023-02-20T11:18:32.221Z,10.50
2023-02-20T11:20:58.501Z,10.58
2023-02-20T11:23:24.791Z,10.82
2023-02-20T11:25:51.088Z,10.84
2023-02-20T11:28:17.416Z,10.98
2023-02-20T11:30:43.738Z,11.11
2023-02-20T11:33:10.118Z,11.20
2023-02-20T11:35:36.404Z,11.11
2023-02-20T11:38:02.663Z,11.08
2023-02-20T11:40:28.951Z,11.26
2023-02-20T11:42:55.314Z,11.29
2023-02-20T11:45:21.606Z,11.40
2023-02-20T11:47:47.880Z,11.25
2023-02-20T11:50:19.505Z,11.53
2023-02-20T11:52:46.673Z,11.66
2023-02-20T11:55:12.934Z,11.76
2023-02-20T11:57:39.248Z,11.83
2023-02-20T12:00:05.574Z,11.73
2023-02-20T12:02:31.887Z,11.72
2023-02-20T12:04:58.185Z,11.79
2023-02-20T12:07:24.639Z,11.55
2023-02-20T12:09:50.928Z,11.75
2023-02-20T12:12:17.169Z,11.91
2023-02-20T12:14:43.493Z,11.84
2023-02-20T12:17:09.829Z,11.96
2023-02-20T12:19:36.092Z,11.81
2023-02-20T12:22:02.365Z,11.73
2023-02-20T12:24:28.658Z,11.79
2023-02-20T12:26:54.893Z,11.90
2023-02-20T12:29:21.161Z,12.01
2023-02-20T12:31:47.518Z,12.08
2023-02-20T12:34:13.832Z,12.30
2023-02-20T12:36:40.151Z,12.44
2023-02-20T12:39:06.456Z,12.37
2023-02-20T12:41:32.711Z,12.16
2023-02-20T12:44:12.431Z,12.13
2023-02-20T12:46:39.482Z,12.08
2023-02-20T12:49:05.778Z,12.19
2023-02-20T12:51:32.028Z,12.37
2023-02-20T12:53:58.339Z,12.44
2023-02-20T12:56:24.618Z,12.68
2023-02-20T12:58:50.859Z,12.80
2023-02-20T13:01:21.035Z,12.92
2023-02-20T13:03:51.480Z,13.03
2023-02-20T13:06:17.793Z,12.99
2023-02-20T13:08:44.204Z,13.11
2023-02-20T13:11:12.116Z,13.17
2023-02-20T13:13:38.428Z,13.07
2023-02-20T13:16:04.760Z,13.00
2023-02-20T13:18:31.051Z,13.00
2023-02-20T13:20:57.377Z,13.14
2023-02-20T13:23:23.637Z,13.10
2023-02-20T13:25:49.899Z,12.98
2023-02-20T13:28:16.188Z,13.01
2023-02-20T13:30:42.477Z,12.89
2023-02-20T13:33:08.735Z,12.74
2023-02-20T13:35:35.061Z,12.51
2023-02-20T13:38:01.436Z,12.61
2023-02-20T13:40:27.677Z,12.45
2023-02-20T13:42:53.950Z,12.66
2023-02-20T13:45:20.232Z,12.83
2023-02-20T13:47:46.545Z,12.88
2023-02-20T13:50:12.968Z,12.95
2023-02-20T13:52:39.268Z,12.97
2023-02-20T13:55:05.565Z,13.04
2023-02-20T13:57:31.804Z,13.07
2023-02-20T13:59:58.088Z,13.07
2023-02-20T14:02:24.391Z,13.02
2023-02-20T14:04:50.874Z,13.03
2023-02-20T14:07:17.140Z,12.92
2023-02-20T14:09:43.391Z,12.87
2023-02-20T14:12:09.689Z,12.79
2023-02-20T14:14:35.972Z,12.74
2023-02-20T14:17:02.283Z,12.62
2023-02-20T14:19:28.545Z,12.60
2023-02-20T14:21:54.802Z,12.38
2023-02-20T14:24:21.131Z,12.37
2023-02-20T14:26:47.477Z,12.29
2023-02-20T14:29:13.737Z,12.18
2023-02-20T14:31:40.112Z,12.15
2023-02-20T14:34:06.452Z,12.07
2023-02-20T14:36:32.733Z,12.04
2023-02-20T14:38:59.018Z,11.97
2023-02-20T14:41:25.307Z,11.89
2023-02-20T14:43:51.684Z,11.77
2023-02-20T14:46:17.941Z,11.65
2023-02-20T14:48:45.017Z,11.57
2023-02-20T14:51:11.305Z,11.48
2023-02-20T14:53:37.554Z,11.40
2023-02-20T14:56:03.792Z,11.36
2023-02-20T14:58:30.068Z,11.45
2023-02-20T15:00:56.413Z,11.36
2023-02-20T15:03:30.108Z,11.30
2023-02-20T15:05:57.120Z,11.21
2023-02-20T15:08:23.372Z,11.15
2023-02-20T15:10:49.632Z,11.13
2023-02-20T15:13:15.893Z,11.13
2023-02-20T15:15:42.144Z,11.21
2023-02-20T15:18:08.372Z,11.24
2023-02-20T15:20:36.105Z,11.37
2023-02-20T15:23:14.634Z,11.35
2023-02-20T15:25:41.671Z,11.35
2023-02-20T15:28:07.968Z,11.39
2023-02-20T15:30:34.332Z,11.40
2023-02-20T15:33:00.693Z,11.33
2023-02-20T15:35:26.963Z,11.27
2023-02-20T15:37:55.264Z,11.18
2023-02-20T15:40:21.625Z,11.09
2023-02-20T15:42:47.880Z,11.03
2023-02-20T15:45:14.189Z,10.95
2023-02-20T15:47:40.501Z,10.72
2023-02-20T15:50:06.771Z,10.71
2023-02-20T15:52:33.049Z,10.50
2023-02-20T15:54:59.320Z,10.26
2023-02-20T15:57:25.576Z,10.08
2023-02-20T15:59:53.089Z,9.97
2023-02-20T16:02:19.536Z,9.95
2023-02-20T16:04:45.874Z,9.75
2023-02-20T16:07:12.142Z,9.64
2023-02-20T16:09:38.405Z,9.65
2023-02-20T16:12:04.668Z,9.62
2023-02-20T16:14:30.900Z,9.80
2023-02-20T16:16:57.166Z,9.83
2023-02-20T16:19:33.381Z,9.90
2023-02-20T16:22:06.553Z,9.85
2023-02-20T16:24:32.819Z,9.81
2023-02-20T16:26:59.058Z,9.81
2023-02-20T16:29:25.354Z,9.85
2023-02-20T16:31:51.698Z,9.84
2023-02-20T16:34:22.173Z,9.80
2023-02-20T16:36:48.710Z,9.76
2023-02-20T16:39:25.589Z,9.72
2023-02-20T16:41:52.407Z,9.66
2023-02-20T16:44:18.658Z,9.57
2023-02-20T16:46:44.969Z,9.53
2023-02-20T16:49:11.254Z,9.44
2023-02-20T16:51:37.597Z,9.36
2023-02-20T16:54:03.837Z,9.30
2023-02-20T16:56:30.092Z,9.28
2023-02-20T16:58:56.456Z,9.21
2023-02-20T17:01:22.766Z,9.19
2023-02-20T17:03:49.048Z,9.21
2023-02-20T17:06:15.388Z,9.18
2023-02-20T17:08:41.667Z,9.10
2023-02-20T17:11:07.928Z,9.03
2023-02-20T17:13:34.234Z,8.95
2023-02-20T17:16:00.585Z,8.92
2023-02-20T17:18:26.861Z,8.85
2023-02-20T17:20:53.157Z,8.77
2023-02-20T17:23:19.459Z,8.72
2023-02-20T17:25:45.698Z,8.73
2023-02-20T17:28:11.967Z,8.75
2023-02-20T17:30:38.257Z,8.73
2023-02-20T17:33:04.606Z,8.69
2023-02-20T17:35:31.075Z,8.84
2023-02-20T17:37:57.330Z,8.87
2023-02-20T17:40:23.605Z,8.92
2023-02-20T17:42:50.037Z,8.99
2023-02-20T17:45:16.308Z,8.90
2023-02-20T17:47:42.573Z,8.97
2023-02-20T17:50:08.871Z,9.04
2023-02-20T17:52:35.112Z,8.99
2023-02-20T17:55:01.396Z,9.02
2023-02-20T17:57:27.651Z,8.99
2023-02-20T17:59:53.912Z,8.94
2023-02-20T18:02:20.324Z,9.00
2023-02-20T18:04:46.696Z,8.93
2023-02-20T18:07:12.950Z,8.86
2023-02-20T18:09:39.238Z,8.78
2023-02-20T18:12:05.571Z,8.70
2023-02-20T18:14:31.822Z,8.68
2023-02-20T18:16:58.128Z,8.74
2023-02-20T18:19:24.432Z,8.75
2023-02-20T18:21:50.681Z,8.74
2023-02-20T18:24:16.963Z,8.75
2023-02-20T18:26:43.241Z,8.74
2023-02-20T18:29:09.485Z,8.60
2023-02-20T18:31:35.740Z,8.63
2023-02-20T18:34:02.055Z,8.64
2023-02-20T18:36:28.320Z,8.40
2023-02-20T18:38:54.586Z,8.28
2023-02-20T18:41:20.846Z,8.39
2023-02-20T18:43:47.109Z,8.42
2023-02-20T18:46:13.705Z,8.42
2023-02-20T18:48:40.120Z,8.48
2023-02-20T18:51:06.402Z,8.44
2023-02-20T18:53:32.644Z,8.44
2023-02-20T18:55:58.910Z,8.27
2023-02-20T18:58:25.232Z,8.21
2023-02-20T19:00:51.520Z,8.21
2023-02-20T19:03:17.804Z,8.25
2023-02-20T19:05:44.110Z,8.27
2023-02-20T19:08:10.374Z,8.22
2023-02-20T19:10:36.660Z,8.19
2023-02-20T19:13:02.925Z,8.09
2023-02-20T19:15:29.172Z,8.03
2023-02-20T19:17:56.084Z,7.93
2023-02-20T19:20:24.257Z,7.92
2023-02-20T19:22:51.520Z,7.87
2023-02-20T19:25:17.898Z,7.88
2023-02-20T19:27:44.192Z,7.88
2023-02-20T19:30:10.488Z,7.89
2023-02-20T19:32:36.908Z,7.92
2023-02-20T19:35:03.271Z,7.91
2023-02-20T19:37:29.526Z,7.87
2023-02-20T19:39:55.801Z,7.83
2023-02-20T19:42:22.232Z,7.56
2023-02-20T19:44:48.527Z,7.38
2023-02-20T19:47:14.779Z,7.55
2023-02-20T19:49:41.053Z,7.51
2023-02-20T19:52:07.368Z,7.43
2023-02-20T19:54:33.627Z,7.57
2023-02-20T19:56:59.856Z,7.46
2023-02-20T19:59:26.104Z,7.46
2023-02-20T20:01:52.356Z,7.53
2023-02-20T20:04:18.603Z,7.51
2023-02-20T20:06:44.842Z,7.52
2023-02-20T20:09:16.612Z,7.57
2023-02-20T20:11:44.962Z,7.65
2023-02-20T20:14:11.213Z,7.65
2023-02-20T20:16:37.594Z,7.66
2023-02-20T20:19:03.986Z,7.72
2023-02-20T20:21:30.266Z,7.73
2023-02-20T20:23:56.512Z,7.71
2023-02-20T20:26:22.773Z,7.72
2023-02-20T20:28:49.012Z,7.70
2023-02-20T20:31:15.687Z,7.74
2023-02-20T20:33:42.101Z,7.64
2023-02-20T20:36:08.373Z,7.62
2023-02-20T20:38:34.653Z,7.59
2023-02-20T20:41:00.945Z,7.57
2023-02-20T20:43:27.242Z,7.64
2023-02-20T20:45:53.530Z,7.58
2023-02-20T20:48:19.792Z,7.63
2023-02-20T20:50:46.030Z,7.58
2023-02-20T20:53:12.279Z,7.57
2023-02-20T20:55:38.540Z,7.54
2023-02-20T20:58:04.837Z,7.54
2023-02-20T21:00:31.120Z,7.54
2023-02-20T21:02:57.395Z,7.30
2023-02-20T21:05:23.701Z,7.32
2023-02-20T21:07:49.980Z,7.40
2023-02-20T21:10:16.250Z,7.47
2023-02-20T21:12:42.552Z,7.45
2023-02-20T21:15:08.848Z,7.48
2023-02-20T21:17:35.120Z,7.46
2023-02-20T21:20:01.414Z,7.41
2023-02-20T21:22:27.690Z,7.49
2023-02-20T21:24:53.966Z,7.40
2023-02-20T21:27:20.224Z,7.24
2023-02-20T21:29:46.481Z,7.34
2023-02-20T21:32:12.759Z,7.38
2023-02-20T21:34:39.127Z,7.35
2023-02-20T21:37:05.440Z,7.31
2023-02-20T21:39:31.684Z,7.31
2023-02-20T21:41:58.006Z,7.10
2023-02-20T21:44:24.305Z,6.90
2023-02-20T21:46:50.580Z,6.94
2023-02-20T21:49:16.839Z,7.02
2023-02-20T21:51:43.093Z,7.08
2023-02-20T21:54:09.328Z,7.18
2023-02-20T21:56:35.615Z,7.21
2023-02-20T21:59:03.091Z,7.22
2023-02-20T22:01:30.171Z,7.16
2023-02-20T22:03:56.428Z,7.26
2023-02-20T22:06:22.662Z,7.34
2023-02-20T22:08:48.906Z,7.28
2023-02-20T22:11:15.337Z,7.32
2023-02-20T22:13:41.686Z,7.31
2023-02-20T22:16:08.018Z,7.36
2023-02-20T22:18:34.300Z,7.48
2023-02-20T22:21:00.571Z,7.51
2023-02-20T22:23:26.820Z,7.58
2023-02-20T22:25:53.049Z,7.53
2023-02-20T22:28:19.325Z,7.52
2023-02-20T22:30:47.974Z,7.44
2023-02-20T22:33:15.544Z,7.38
2023-02-20T22:35:41.813Z,7.32
2023-02-20T22:38:08.108Z,7.27
2023-02-20T22:40:34.406Z,7.30
2023-02-20T22:43:00.691Z,7.27
2023-02-20T22:45:26.976Z,7.40
2023-02-20T22:47:53.224Z,7.33
2023-02-20T22:50:19.454Z,7.27
2023-02-20T22:52:45.716Z,7.26
2023-02-20T22:55:11.982Z,7.08
2023-02-20T22:57:38.274Z,6.94
2023-02-20T23:00:04.500Z,6.90
2023-02-20T23:02:30.739Z,6.89
2023-02-20T23:04:57.040Z,6.81
2023-02-20T23:07:23.318Z,6.81
2023-02-20T23:09:49.561Z,6.92
2023-02-20T23:12:15.803Z,7.00
2023-02-20T23:14:42.085Z,7.09
2023-02-20T23:17:08.321Z,7.21
2023-02-20T23:19:34.558Z,7.17
2023-02-20T23:22:00.789Z,7.13
2023-02-20T23:24:27.016Z,7.10
2023-02-20T23:26:53.248Z,7.06
2023-02-20T23:29:19.486Z,7.14
2023-02-20T23:31:45.813Z,7.12
2023-02-20T23:34:12.110Z,7.09
2023-02-20T23:36:38.371Z,7.06
2023-02-20T23:39:04.627Z,7.06
2023-02-20T23:41:30.883Z,7.09
2023-02-20T23:43:58.640Z,7.03
2023-02-20T23:46:24.944Z,6.71
2023-02-20T23:48:51.226Z,6.64
2023-02-20T23:51:17.480Z,6.75
2023-02-20T23:53:43.713Z,6.79
2023-02-20T23:56:09.952Z,6.75
2023-02-20T23:58:36.183Z,6.84
